»·PEaware :: BOE561 KLAS-KJAC

BOE561 :: KLAS-KJAC

FLIGHT INFORMATION

Flight Status: Arrived
Operator:
Boeing Commercial Airplane Group
More flights by this operator :: More flights under this callsign
Pilot: Ben F. (2808)
Aircraft: BOEING 737-200
(B732)
More flights by this aircraft type
Origin: KLAS McCarran Intl
United States
Destination: KJAC Jackson Hole
United States
More flights between these airports :: More routes between these airports
Route: +LAS5 MLF J9 FFU BPI DNW
File this flight plan on PilotEdge
Remarks:
Altitude:
(Current/Filed)
31,000ft
Speed:
(Current/Filed)
442kts
Departed: 29-Sep-18 08:52 AM
Arrived: 29-Sep-18 10:15 AM
Distance/Time
Traveled:
495nm/1:22
Distance/Time
To Go:
Arrived

Flight Plot

Page will automatically refresh every two minutes.

Flight plan parsing failed; only flown route is shown


Map Options




Map Legend


Flown Route
Filed Route
Departure Airport
Arrival Airport
Navaid (VOR, NDB)
Fix

Horizontal Profiles

Position Reports

Time Latitude Longitude Heading Altitude Ground
Speed
29-Sep-18 08:33 36.081453 -115.171213 90 2150ft 0kts
29-Sep-18 08:34 36.081453 -115.171213 90 2150ft 0kts
29-Sep-18 08:35 36.081453 -115.171213 90 2150ft 0kts
29-Sep-18 08:36 36.081453 -115.171213 90 2150ft 0kts
29-Sep-18 08:37 36.081453 -115.171213 90 2150ft 0kts
29-Sep-18 08:38 36.081453 -115.171213 90 2150ft 0kts
29-Sep-18 08:39 36.081453 -115.171213 90 2150ft 0kts
29-Sep-18 08:40 36.081453 -115.171213 90 2150ft 0kts
29-Sep-18 08:41 36.081453 -115.171213 90 2150ft 0kts
29-Sep-18 08:42 36.081453 -115.171213 89 2150ft 0kts
29-Sep-18 08:43 36.081453 -115.171213 90 2150ft 0kts
29-Sep-18 08:44 36.081453 -115.171213 90 2150ft 0kts
29-Sep-18 08:45 36.081453 -115.171210 90 2150ft 0kts
29-Sep-18 08:46 36.081446 -115.169946 90 2150ft 3kts
29-Sep-18 08:47 36.085671 -115.166789 25 2150ft 26kts
29-Sep-18 08:48 36.091752 -115.163250 21 2150ft 24kts
29-Sep-18 08:49 36.097520 -115.159966 25 2150ft 22kts
29-Sep-18 08:50 36.099830 -115.157715 79 2150ft 0kts
29-Sep-18 08:51 36.099830 -115.157715 79 2150ft 0kts
29-Sep-18 08:52 36.099845 -115.157582 85 2150ft 5kts
29-Sep-18 08:53 36.098351 -115.157171 203 2150ft 31kts
29-Sep-18 08:54 36.066284 -115.178576 223 3071ft 179kts
29-Sep-18 08:55 36.036824 -115.227240 231 5704ft 173kts
29-Sep-18 08:56 36.005109 -115.281018 231 7045ft 233kts
29-Sep-18 08:57 35.943495 -115.290302 136 8690ft 283kts
29-Sep-18 08:58 35.932898 -115.188737 91 10639ft 335kts
29-Sep-18 08:59 35.937112 -115.069364 91 12690ft 355kts
29-Sep-18 09:00 35.945691 -114.947770 71 14619ft 375kts
29-Sep-18 09:01 36.025491 -114.863269 32 16397ft 392kts
29-Sep-18 09:02 36.120511 -114.794239 33 17998ft 401kts
29-Sep-18 09:03 36.214875 -114.719165 31 19424ft 409kts
29-Sep-18 09:04 36.312195 -114.643864 31 20714ft 417kts
29-Sep-18 09:05 36.411018 -114.567414 31 21807ft 423kts
29-Sep-18 09:06 36.511578 -114.489376 31 22791ft 429kts
29-Sep-18 09:07 36.612956 -114.410458 31 23665ft 434kts
29-Sep-18 09:08 36.713951 -114.331595 31 24457ft 438kts
29-Sep-18 09:09 36.817062 -114.250817 31 25171ft 442kts
29-Sep-18 09:10 36.921193 -114.168977 31 25850ft 445kts
29-Sep-18 09:11 37.025866 -114.086425 31 26436ft 449kts
29-Sep-18 09:12 37.128018 -114.005606 30 26984ft 451kts
29-Sep-18 09:13 37.233091 -113.922235 30 27415ft 455kts
29-Sep-18 09:14 37.340067 -113.837043 30 27817ft 458kts
29-Sep-18 09:15 37.447567 -113.751141 30 28229ft 460kts
29-Sep-18 09:16 37.554981 -113.665007 30 28701ft 459kts
29-Sep-18 09:17 37.662054 -113.578852 30 29178ft 458kts
29-Sep-18 09:18 37.769111 -113.492409 30 29617ft 458kts
29-Sep-18 09:19 37.875829 -113.405925 30 30186ft 459kts
29-Sep-18 09:20 37.980516 -113.320810 31 30676ft 459kts
29-Sep-18 09:21 38.087431 -113.233581 31 31126ft 460kts
29-Sep-18 09:22 38.192104 -113.147888 31 31105ft 466kts
29-Sep-18 09:23 38.300982 -113.058640 30 31101ft 471kts
29-Sep-18 09:24 38.416153 -112.982163 20 31102ft 471kts
29-Sep-18 09:25 38.536957 -112.917951 19 31102ft 473kts
29-Sep-18 09:26 38.657879 -112.853645 19 31103ft 475kts
29-Sep-18 09:27 38.778773 -112.788704 19 31102ft 472kts
29-Sep-18 09:28 38.899203 -112.723742 19 31064ft 472kts
29-Sep-18 09:29 39.019895 -112.658356 18 30985ft 475kts
29-Sep-18 09:30 39.135456 -112.595591 18 30968ft 475kts
29-Sep-18 09:31 39.249725 -112.533286 18 30969ft 475kts
29-Sep-18 09:32 39.369541 -112.466018 19 30970ft 475kts
29-Sep-18 09:33 39.489512 -112.397128 19 30970ft 475kts
29-Sep-18 09:34 39.607525 -112.329104 20 30963ft 475kts
29-Sep-18 09:35 39.727374 -112.259753 20 30975ft 474kts
29-Sep-18 09:36 39.847424 -112.190041 20 31028ft 474kts
29-Sep-18 09:37 39.967583 -112.119990 20 31027ft 476kts
29-Sep-18 09:38 40.088198 -112.049730 20 31023ft 477kts
29-Sep-18 09:39 40.203146 -111.982530 20 31029ft 477kts
29-Sep-18 09:40 40.320294 -111.905377 25 31038ft 481kts
29-Sep-18 09:41 40.434759 -111.818340 26 31032ft 480kts
29-Sep-18 09:42 40.548791 -111.730781 26 31032ft 480kts
29-Sep-18 09:43 40.662745 -111.642911 26 31040ft 479kts
29-Sep-18 09:44 40.776217 -111.555060 26 30998ft 480kts
29-Sep-18 09:45 40.871362 -111.481122 26 31019ft 479kts
29-Sep-18 09:46 41.004064 -111.377575 26 31113ft 478kts
29-Sep-18 09:47 41.114283 -111.291209 26 31124ft 478kts
29-Sep-18 09:48 41.223117 -111.205602 26 31125ft 478kts
29-Sep-18 09:49 41.317168 -111.131354 26 31127ft 479kts
29-Sep-18 09:50 41.431089 -111.041047 26 31128ft 482kts
29-Sep-18 09:51 41.564664 -110.934705 25 31129ft 484kts
29-Sep-18 09:52 41.660525 -110.858082 25 31130ft 485kts
29-Sep-18 09:53 41.776155 -110.765322 25 30143ft 487kts
29-Sep-18 09:54 41.889827 -110.673685 25 28148ft 473kts
29-Sep-18 09:55 42.018541 -110.569480 25 25902ft 459kts
29-Sep-18 09:56 42.103854 -110.500139 26 24418ft 450kts
29-Sep-18 09:57 42.203020 -110.419260 25 24135ft 434kts
29-Sep-18 09:58 42.303356 -110.337139 26 23002ft 439kts
29-Sep-18 09:59 42.404140 -110.254288 27 20542ft 420kts
29-Sep-18 10:00 42.497886 -110.176961 27 18227ft 403kts
29-Sep-18 10:01 42.594890 -110.120223 354 15918ft 368kts
29-Sep-18 10:02 42.692660 -110.131173 348 14062ft 341kts
29-Sep-18 10:03 42.785433 -110.146863 348 14065ft 337kts
29-Sep-18 10:04 42.878744 -110.163475 345 14081ft 343kts
29-Sep-18 10:05 42.943821 -110.248027 301 14084ft 338kts
29-Sep-18 10:06 42.996182 -110.354940 301 13174ft 339kts
29-Sep-18 10:07 43.048560 -110.463440 301 13085ft 349kts
29-Sep-18 10:08 43.100089 -110.570918 301 13081ft 350kts
29-Sep-18 10:09 43.150709 -110.676347 300 13075ft 347kts
29-Sep-18 10:10 43.196775 -110.771981 301 13023ft 324kts
29-Sep-18 10:11 43.274835 -110.824336 341 11980ft 306kts
29-Sep-18 10:12 43.350855 -110.855657 340 11788ft 283kts
29-Sep-18 10:13 43.423949 -110.828114 21 10393ft 271kts
29-Sep-18 10:14 43.490103 -110.794853 14 8417ft 234kts
29-Sep-18 10:15 43.542839 -110.769106 15 7435ft 161kts
29-Sep-18 10:16 43.582510 -110.749975 15 6804ft 148kts
29-Sep-18 10:17 43.614407 -110.734343 20 6460ft 33kts
29-Sep-18 10:18 43.613766 -110.732996 200 6460ft 17kts
29-Sep-18 10:19 43.607952 -110.735849 201 6460ft 21kts
29-Sep-18 10:20 43.603332 -110.738041 151 6460ft 4kts
29-Sep-18 10:21 43.603089 -110.737242 108 6460ft 0kts

Navigation Log

Ident Type
Flight plan parsing failed, navigation log unavailable